createdAt,value
2024-02-23T00:01:01.618Z,0.65
2024-02-23T00:03:28.055Z,0.95
2024-02-23T00:05:54.464Z,1.40
2024-02-23T00:08:21.044Z,0.88
2024-02-23T00:10:47.660Z,1.00
2024-02-23T00:13:14.260Z,1.17
2024-02-23T00:15:40.722Z,1.50
2024-02-23T00:18:07.959Z,1.13
2024-02-23T00:20:34.499Z,1.52
2024-02-23T00:23:01.014Z,1.15
2024-02-23T00:25:27.683Z,2.30
2024-02-23T00:27:54.118Z,0.82
2024-02-23T00:30:20.785Z,1.13
2024-02-23T00:32:47.399Z,2.33
2024-02-23T00:35:13.926Z,1.95
2024-02-23T00:37:40.407Z,1.05
2024-02-23T00:40:07.623Z,1.80
2024-02-23T00:42:34.076Z,1.27
2024-02-23T00:45:00.528Z,0.90
2024-02-23T00:47:28.205Z,1.15
2024-02-23T00:49:55.070Z,0.90
2024-02-23T00:52:21.670Z,1.38
2024-02-23T00:54:48.690Z,1.63
2024-02-23T00:57:15.135Z,0.63
2024-02-23T00:59:41.565Z,1.40
2024-02-23T01:02:08.042Z,1.02
2024-02-23T01:04:34.447Z,1.42
2024-02-23T01:07:01.181Z,0.90
2024-02-23T01:09:27.681Z,0.85
2024-02-23T01:11:54.461Z,1.13
2024-02-23T01:14:21.077Z,1.20
2024-02-23T01:16:47.683Z,1.00
2024-02-23T01:19:14.595Z,1.27
2024-02-23T01:21:44.066Z,1.40
2024-02-23T01:24:10.553Z,1.02
2024-02-23T01:26:39.938Z,0.98
2024-02-23T01:29:09.207Z,2.35
2024-02-23T01:31:35.661Z,2.80
2024-02-23T01:34:02.217Z,0.65
2024-02-23T01:36:28.701Z,0.88
2024-02-23T01:38:56.131Z,1.63
2024-02-23T01:41:22.605Z,1.77
2024-02-23T01:43:50.784Z,0.95
2024-02-23T01:46:19.742Z,1.27
2024-02-23T01:48:46.860Z,1.15
2024-02-23T01:51:14.065Z,1.05
2024-02-23T01:53:41.203Z,1.42
2024-02-23T01:56:07.809Z,1.35
2024-02-23T01:58:37.959Z,0.88
2024-02-23T02:01:04.728Z,1.02
2024-02-23T02:03:31.172Z,1.67
2024-02-23T02:05:59.629Z,1.02
2024-02-23T02:08:35.892Z,0.95
2024-02-23T02:11:02.510Z,1.45
2024-02-23T02:13:29.603Z,1.02
2024-02-23T02:15:56.196Z,0.90
2024-02-23T02:18:22.849Z,2.10
2024-02-23T02:20:58.456Z,1.10
2024-02-23T02:23:25.964Z,1.17
2024-02-23T02:25:59.662Z,2.03
2024-02-23T02:28:27.159Z,1.15
2024-02-23T02:30:54.159Z,1.13
2024-02-23T02:33:21.136Z,1.50
2024-02-23T02:35:47.631Z,1.35
2024-02-23T02:38:14.303Z,0.70
2024-02-23T02:40:40.800Z,0.93
2024-02-23T02:43:08.087Z,0.90
2024-02-23T02:45:34.753Z,0.80
2024-02-23T02:48:04.873Z,1.15
2024-02-23T02:50:32.001Z,1.35
2024-02-23T02:52:58.512Z,1.00
2024-02-23T02:55:24.964Z,0.88
2024-02-23T02:57:51.365Z,1.10
2024-02-23T03:00:17.948Z,1.13
2024-02-23T03:02:44.440Z,2.25
2024-02-23T03:05:11.039Z,0.75
2024-02-23T03:07:37.565Z,1.65
2024-02-23T03:10:04.606Z,1.77
2024-02-23T03:12:31.074Z,1.70
2024-02-23T03:14:57.846Z,1.10
2024-02-23T03:17:24.537Z,1.23
2024-02-23T03:19:53.881Z,2.33
2024-02-23T03:22:20.586Z,0.80
2024-02-23T03:24:47.080Z,2.33
2024-02-23T03:27:14.886Z,1.02
2024-02-23T03:29:41.676Z,1.15
2024-02-23T03:32:08.718Z,0.85
2024-02-23T03:34:35.590Z,1.05
2024-02-23T03:37:03.781Z,1.33
2024-02-23T03:39:30.652Z,1.10
2024-02-23T03:41:57.137Z,1.75
2024-02-23T03:44:23.651Z,1.20
2024-02-23T03:46:50.794Z,1.77
2024-02-23T03:49:17.613Z,1.20
2024-02-23T03:51:44.249Z,1.52
2024-02-23T03:54:10.736Z,1.13
2024-02-23T03:56:42.178Z,1.38
2024-02-23T03:59:10.565Z,1.08
2024-02-23T04:01:38.140Z,1.55
2024-02-23T04:04:05.390Z,1.23
2024-02-23T04:06:32.129Z,1.75
2024-02-23T04:08:58.702Z,1.45
2024-02-23T04:11:25.291Z,2.35
2024-02-23T04:13:52.986Z,1.27
2024-02-23T04:16:23.183Z,1.38
2024-02-23T04:18:49.829Z,1.08
2024-02-23T04:21:16.553Z,0.47
2024-02-23T04:23:44.455Z,1.58
2024-02-23T04:26:11.005Z,1.00
2024-02-23T04:28:41.592Z,1.15
2024-02-23T04:31:09.537Z,0.93
2024-02-23T04:33:37.381Z,1.27
2024-02-23T04:36:04.754Z,1.05
2024-02-23T04:38:32.313Z,1.95
2024-02-23T04:40:59.330Z,1.08
2024-02-23T04:43:26.376Z,1.90
2024-02-23T04:45:53.166Z,1.67
2024-02-23T04:48:19.727Z,1.55
2024-02-23T04:50:46.241Z,1.40
2024-02-23T04:53:12.844Z,1.50
2024-02-23T04:55:39.307Z,0.98
2024-02-23T04:58:05.880Z,0.77
2024-02-23T05:00:34.617Z,2.45
2024-02-23T05:03:04.322Z,1.52
2024-02-23T05:05:31.781Z,1.58
2024-02-23T05:07:58.723Z,1.30
2024-02-23T05:10:25.155Z,2.15
2024-02-23T05:12:51.739Z,1.13
2024-02-23T05:15:18.161Z,1.35
2024-02-23T05:17:46.793Z,1.05
2024-02-23T05:20:13.879Z,1.30
2024-02-23T05:22:41.416Z,0.95
2024-02-23T05:25:08.768Z,1.63
2024-02-23T05:27:35.343Z,2.83
2024-02-23T05:30:02.183Z,1.55
2024-02-23T05:32:28.731Z,1.08
2024-02-23T05:34:55.373Z,1.40
2024-02-23T05:37:21.980Z,1.67
2024-02-23T05:39:48.606Z,0.77
2024-02-23T05:42:15.022Z,0.85
2024-02-23T05:44:45.176Z,1.95
2024-02-23T05:47:12.072Z,1.13
2024-02-23T05:49:38.545Z,1.33
2024-02-23T05:52:05.047Z,2.83
2024-02-23T05:54:31.675Z,1.27
2024-02-23T05:56:58.321Z,1.42
2024-02-23T05:59:24.797Z,0.98
2024-02-23T06:01:53.329Z,1.27
2024-02-23T06:04:19.756Z,1.58
2024-02-23T06:06:46.611Z,1.30
2024-02-23T06:09:13.305Z,1.13
2024-02-23T06:11:39.932Z,1.98
2024-02-23T06:14:07.585Z,1.10
2024-02-23T06:16:34.105Z,0.98
2024-02-23T06:19:00.704Z,1.77
2024-02-23T06:21:27.193Z,1.23
2024-02-23T06:23:54.504Z,1.27
2024-02-23T06:26:21.049Z,1.23
2024-02-23T06:28:47.457Z,1.27
2024-02-23T06:31:13.997Z,1.38
2024-02-23T06:33:41.972Z,0.93
2024-02-23T06:36:08.906Z,1.13
2024-02-23T06:38:36.258Z,1.52
2024-02-23T06:41:03.002Z,2.35
2024-02-23T06:43:29.749Z,1.15
2024-02-23T06:45:56.320Z,1.70
2024-02-23T06:48:27.690Z,1.17
2024-02-23T06:50:56.597Z,1.98
2024-02-23T06:53:23.041Z,1.80
2024-02-23T06:55:49.449Z,1.08
2024-02-23T06:58:17.696Z,0.57
2024-02-23T07:00:44.177Z,1.38
2024-02-23T07:03:10.662Z,1.10
2024-02-23T07:05:37.335Z,1.67
2024-02-23T07:08:04.336Z,2.47
2024-02-23T07:10:30.951Z,1.05
2024-02-23T07:12:59.236Z,0.80
2024-02-23T07:15:26.947Z,1.52
2024-02-23T07:17:53.770Z,0.75
2024-02-23T07:20:20.347Z,1.17
2024-02-23T07:22:47.583Z,1.20
2024-02-23T07:25:23.514Z,1.35
2024-02-23T07:27:50.362Z,1.08
2024-02-23T07:30:20.670Z,1.63
2024-02-23T07:32:51.054Z,1.85
2024-02-23T07:35:22.953Z,1.83
2024-02-23T07:37:49.474Z,2.17
2024-02-23T07:40:19.107Z,1.30
2024-02-23T07:42:47.727Z,3.03
2024-02-23T07:45:14.400Z,1.90
2024-02-23T07:47:41.041Z,3.13
2024-02-23T07:50:08.381Z,3.70
2024-02-23T07:52:34.945Z,1.17
2024-02-23T07:55:03.817Z,0.90
2024-02-23T07:57:30.833Z,1.17
2024-02-23T07:59:57.392Z,1.77
2024-02-23T08:02:23.899Z,2.95
2024-02-23T08:04:51.504Z,1.48
2024-02-23T08:07:18.096Z,2.67
2024-02-23T08:09:44.606Z,1.10
2024-02-23T08:12:12.693Z,1.85
2024-02-23T08:14:39.321Z,2.70
2024-02-23T08:17:06.223Z,2.35
2024-02-23T08:19:33.012Z,2.45
2024-02-23T08:21:59.594Z,1.10
2024-02-23T08:24:27.516Z,3.05
2024-02-23T08:26:54.932Z,3.33
2024-02-23T08:29:21.746Z,1.63
2024-02-23T08:31:49.052Z,3.10
2024-02-23T08:34:15.512Z,3.75
2024-02-23T08:36:42.058Z,4.63
2024-02-23T08:39:10.053Z,4.13
2024-02-23T08:41:37.047Z,1.95
2024-02-23T08:44:04.035Z,1.65
2024-02-23T08:46:30.629Z,2.72
2024-02-23T08:48:57.111Z,4.47
2024-02-23T08:51:23.594Z,3.20
2024-02-23T08:53:50.068Z,3.75
2024-02-23T08:56:17.345Z,3.28
2024-02-23T08:58:43.929Z,2.00
2024-02-23T09:01:10.845Z,5.43
2024-02-23T09:03:39.013Z,4.35
2024-02-23T09:06:06.253Z,2.78
2024-02-23T09:08:32.976Z,3.13
2024-02-23T09:10:59.588Z,3.92
2024-02-23T09:13:27.758Z,3.08
2024-02-23T09:15:54.273Z,2.97
2024-02-23T09:18:21.329Z,2.20
2024-02-23T09:20:48.085Z,3.85
2024-02-23T09:23:14.671Z,2.58
2024-02-23T09:25:43.924Z,2.70
2024-02-23T09:28:12.408Z,1.42
2024-02-23T09:30:39.496Z,3.65
2024-02-23T09:33:06.407Z,3.50
2024-02-23T09:35:35.667Z,2.60
2024-02-23T09:38:02.221Z,2.58
2024-02-23T09:40:28.780Z,2.92
2024-02-23T09:42:59.994Z,2.25
2024-02-23T09:45:30.673Z,3.88
2024-02-23T09:47:58.613Z,5.15
2024-02-23T09:50:25.739Z,1.88
2024-02-23T09:52:52.631Z,2.55
2024-02-23T09:55:22.147Z,2.08
2024-02-23T09:57:49.656Z,1.80
2024-02-23T10:00:18.628Z,1.95
2024-02-23T10:02:46.231Z,2.63
2024-02-23T10:05:15.405Z,2.70
2024-02-23T10:07:42.420Z,2.58
2024-02-23T10:10:10.162Z,3.78
2024-02-23T10:12:40.663Z,2.60
2024-02-23T10:15:07.875Z,4.30
2024-02-23T10:17:36.555Z,3.22
2024-02-23T10:20:05.755Z,3.53
2024-02-23T10:22:36.335Z,2.00
2024-02-23T10:25:03.312Z,2.60
2024-02-23T10:27:29.837Z,3.80
2024-02-23T10:29:56.537Z,3.90
2024-02-23T10:32:25.405Z,5.25
2024-02-23T10:34:53.971Z,6.40
2024-02-23T10:37:23.422Z,3.65
2024-02-23T10:39:55.022Z,4.00
2024-02-23T10:42:25.263Z,3.90
2024-02-23T10:44:53.219Z,4.30
2024-02-23T10:47:22.597Z,2.97
2024-02-23T10:49:52.479Z,3.85
2024-02-23T10:52:19.924Z,3.10
2024-02-23T10:54:47.618Z,5.20
2024-02-23T10:57:16.440Z,4.97
2024-02-23T10:59:47.687Z,5.90
2024-02-23T11:02:19.152Z,5.80
2024-02-23T11:04:52.778Z,3.15
2024-02-23T11:07:23.412Z,3.13
2024-02-23T11:09:53.317Z,8.57
2024-02-23T11:12:27.345Z,5.65
2024-02-23T11:14:59.029Z,4.78
2024-02-23T11:17:28.763Z,4.68
2024-02-23T11:19:58.757Z,4.15
2024-02-23T11:22:37.759Z,3.65
2024-02-23T11:25:09.537Z,3.40
2024-02-23T11:27:36.712Z,4.38
2024-02-23T11:30:06.707Z,3.70
2024-02-23T11:32:55.579Z,2.65
2024-02-23T11:35:27.001Z,2.70
2024-02-23T11:38:00.387Z,5.68
2024-02-23T11:40:27.873Z,3.75
2024-02-23T11:42:56.035Z,4.68
2024-02-23T11:45:23.116Z,4.03
2024-02-23T11:47:49.689Z,3.40
2024-02-23T11:50:17.623Z,5.65
2024-02-23T11:52:44.164Z,4.78
2024-02-23T11:55:10.731Z,6.38
2024-02-23T11:57:46.488Z,4.60
2024-02-23T12:00:15.335Z,4.75
2024-02-23T12:02:42.102Z,5.85
2024-02-23T12:05:09.288Z,6.75
2024-02-23T12:07:36.830Z,3.53
2024-02-23T12:10:05.354Z,5.93
2024-02-23T12:12:32.080Z,5.45
2024-02-23T12:15:00.118Z,3.35
2024-02-23T12:17:30.354Z,5.53
2024-02-23T12:20:04.144Z,4.72
2024-02-23T12:22:30.714Z,4.80
2024-02-23T12:25:01.080Z,4.07
2024-02-23T12:27:27.995Z,4.82
2024-02-23T12:29:55.503Z,7.72
2024-02-23T12:32:22.893Z,4.75
2024-02-23T12:34:50.134Z,8.18
2024-02-23T12:37:17.592Z,4.57
2024-02-23T12:39:44.610Z,3.10
2024-02-23T12:57:28.016Z,8.32
2024-02-23T12:59:54.451Z,9.10
2024-02-23T13:02:23.487Z,6.32
2024-02-23T13:04:50.648Z,9.40
2024-02-23T13:07:18.227Z,6.10
2024-02-23T13:09:45.550Z,6.13
2024-02-23T13:12:12.394Z,4.30
2024-02-23T13:14:39.110Z,7.57
2024-02-23T13:17:06.035Z,6.10
2024-02-23T13:19:32.642Z,4.60
2024-02-23T13:22:01.517Z,6.53
2024-02-23T13:24:28.363Z,6.03
2024-02-23T13:26:54.950Z,4.93
2024-02-23T13:29:21.839Z,4.95
2024-02-23T13:31:48.376Z,4.65
2024-02-23T13:34:17.903Z,4.68
2024-02-23T13:36:45.267Z,4.18
2024-02-23T13:39:11.846Z,6.20
2024-02-23T13:41:39.265Z,2.67
2024-02-23T13:44:06.145Z,4.55
2024-02-23T13:46:32.739Z,3.75
2024-02-23T13:49:08.371Z,7.25
2024-02-23T13:51:35.247Z,3.17
2024-02-23T13:57:41.868Z,5.77
2024-02-23T14:00:13.811Z,7.40
2024-02-23T14:02:43.386Z,4.30
2024-02-23T14:05:10.000Z,3.78
2024-02-23T14:07:36.927Z,6.05
2024-02-23T14:10:04.282Z,5.00
2024-02-23T14:12:31.479Z,4.63
2024-02-23T14:14:57.948Z,7.75
2024-02-23T14:17:24.686Z,3.88
2024-02-23T14:19:52.039Z,4.85
2024-02-23T14:22:18.927Z,7.32
2024-02-23T14:24:45.482Z,5.75
2024-02-23T14:27:12.326Z,8.30
2024-02-23T14:29:38.961Z,6.32
2024-02-23T14:32:05.629Z,5.07
2024-02-23T14:34:34.479Z,4.13
2024-02-23T14:37:01.144Z,3.65
2024-02-23T14:39:27.668Z,5.10
2024-02-23T14:41:54.466Z,5.32
2024-02-23T14:44:21.080Z,3.65
2024-02-23T14:46:47.673Z,7.50
2024-02-23T14:49:14.429Z,2.92
2024-02-23T14:51:44.211Z,4.13
2024-02-23T14:54:18.471Z,6.28
2024-02-23T14:56:45.224Z,3.85
2024-02-23T14:59:11.788Z,4.05
2024-02-23T15:01:39.373Z,5.70
2024-02-23T15:04:06.497Z,5.78
2024-02-23T15:06:32.990Z,4.85
2024-02-23T15:08:59.587Z,4.82
2024-02-23T15:11:26.420Z,5.40
2024-02-23T15:13:58.511Z,7.78
2024-02-23T15:16:33.720Z,3.05
2024-02-23T15:19:00.568Z,5.25
2024-02-23T15:21:28.208Z,9.30
2024-02-23T15:23:55.634Z,5.95
2024-02-23T15:26:22.381Z,6.47
2024-02-23T15:28:48.913Z,4.18
2024-02-23T15:31:15.785Z,4.43
2024-02-23T15:33:44.695Z,4.35
2024-02-23T15:36:11.311Z,5.85
2024-02-23T15:38:38.440Z,7.53
2024-02-23T15:41:05.875Z,4.45
2024-02-23T15:43:32.682Z,2.67
2024-02-23T15:45:59.290Z,6.88
2024-02-23T15:48:26.813Z,8.63
2024-02-23T15:51:10.122Z,11.20
2024-02-23T15:53:40.627Z,7.55
2024-02-23T15:56:07.368Z,6.57
2024-02-23T15:58:33.902Z,4.70
2024-02-23T16:01:00.406Z,6.65
2024-02-23T16:03:27.012Z,4.22
2024-02-23T16:05:53.697Z,9.57
2024-02-23T16:08:40.107Z,4.53
2024-02-23T16:11:06.762Z,4.57
2024-02-23T16:13:33.327Z,5.82
2024-02-23T16:16:00.131Z,4.18
2024-02-23T16:18:26.658Z,4.32
2024-02-23T16:20:54.083Z,8.77
2024-02-23T16:23:20.642Z,4.63
2024-02-23T16:25:47.102Z,7.32
2024-02-23T16:28:13.654Z,4.32
2024-02-23T16:30:41.237Z,9.90
2024-02-23T16:33:08.672Z,4.43
2024-02-23T16:35:35.359Z,6.22
2024-02-23T16:38:02.147Z,7.15
2024-02-23T16:40:31.578Z,5.32
2024-02-23T16:42:58.779Z,5.85
2024-02-23T16:45:28.200Z,3.28
2024-02-23T16:47:55.906Z,4.47
2024-02-23T16:50:22.498Z,9.77
2024-02-23T16:52:49.882Z,4.88
2024-02-23T16:55:19.688Z,4.93
2024-02-23T16:57:46.156Z,6.18
2024-02-23T17:00:13.306Z,2.50
2024-02-23T17:02:39.914Z,2.58
2024-02-23T17:05:06.769Z,4.07
2024-02-23T17:07:33.363Z,4.78
2024-02-23T17:09:59.958Z,4.60
2024-02-23T17:12:28.400Z,3.63
2024-02-23T17:14:55.093Z,4.65
2024-02-23T17:17:22.000Z,1.75
2024-02-23T17:19:48.562Z,6.57
2024-02-23T17:22:15.055Z,3.30
2024-02-23T17:24:41.856Z,3.47
2024-02-23T17:27:10.044Z,4.53
2024-02-23T17:29:36.653Z,4.53
2024-02-23T17:32:03.292Z,2.70
2024-02-23T17:34:29.871Z,5.72
2024-02-23T17:36:56.444Z,2.80
2024-02-23T17:39:24.429Z,3.40
2024-02-23T17:41:51.079Z,1.85
2024-02-23T17:44:18.925Z,5.65
2024-02-23T17:46:48.741Z,5.10
2024-02-23T17:49:20.528Z,4.28
2024-02-23T17:51:47.134Z,5.35
2024-02-23T17:54:13.807Z,2.00
2024-02-23T17:56:40.343Z,3.65
2024-02-23T17:59:06.854Z,3.45
2024-02-23T18:01:36.169Z,6.90
2024-02-23T18:04:03.460Z,3.25
2024-02-23T18:06:32.398Z,3.42
2024-02-23T18:08:59.044Z,5.43
2024-02-23T18:11:25.831Z,4.03
2024-02-23T18:13:53.046Z,2.75
2024-02-23T18:16:23.176Z,4.35
2024-02-23T18:18:51.923Z,4.30
2024-02-23T18:21:18.733Z,2.70
2024-02-23T18:23:45.495Z,2.33
2024-02-23T18:26:15.582Z,3.65
2024-02-23T18:28:42.451Z,5.30
2024-02-23T18:31:09.353Z,2.35
2024-02-23T18:33:35.936Z,2.63
2024-02-23T18:36:02.716Z,2.95
2024-02-23T18:38:29.230Z,2.40
2024-02-23T18:40:55.907Z,5.05
2024-02-23T18:43:22.319Z,1.98
2024-02-23T18:45:48.786Z,2.65
2024-02-23T18:48:18.441Z,2.20
2024-02-23T18:50:44.933Z,2.58
2024-02-23T18:53:11.508Z,4.88
2024-02-23T18:55:38.996Z,2.28
2024-02-23T18:58:10.554Z,3.03
2024-02-23T19:00:37.122Z,2.22
2024-02-23T19:03:04.574Z,2.50
2024-02-23T19:05:31.628Z,2.88
2024-02-23T19:07:58.184Z,2.97
2024-02-23T19:10:25.021Z,1.85
2024-02-23T19:12:51.673Z,2.70
2024-02-23T19:15:18.155Z,2.80
2024-02-23T19:17:44.846Z,2.22
2024-02-23T19:20:11.788Z,3.92
2024-02-23T19:22:39.160Z,2.30
2024-02-23T19:25:13.967Z,3.83
2024-02-23T19:27:41.594Z,2.47
2024-02-23T19:30:13.508Z,1.80
2024-02-23T19:32:52.466Z,2.28
2024-02-23T19:35:19.037Z,3.38
2024-02-23T19:37:45.590Z,3.47
2024-02-23T19:40:14.440Z,3.33
2024-02-23T19:42:40.882Z,1.38
2024-02-23T19:45:07.802Z,2.83
2024-02-23T19:47:34.895Z,2.45
2024-02-23T19:50:01.563Z,2.60
2024-02-23T19:52:30.520Z,2.67
2024-02-23T19:54:57.096Z,2.95
2024-02-23T19:57:26.668Z,2.78
2024-02-23T19:59:54.294Z,4.05
2024-02-23T20:02:20.787Z,2.63
2024-02-23T20:04:53.342Z,2.63
2024-02-23T20:07:22.172Z,2.03
2024-02-23T20:09:48.828Z,3.33
2024-02-23T20:12:15.540Z,2.13
2024-02-23T20:14:42.277Z,3.95
2024-02-23T20:17:09.776Z,2.05
2024-02-23T20:19:36.379Z,1.60
2024-02-23T20:22:03.378Z,2.30
2024-02-23T20:24:30.036Z,1.83
2024-02-23T20:27:01.377Z,1.58
2024-02-23T20:29:32.099Z,1.85
2024-02-23T20:32:10.625Z,1.85
2024-02-23T20:34:42.626Z,4.00
2024-02-23T20:37:09.801Z,2.33
2024-02-23T20:39:36.256Z,2.83
2024-02-23T20:42:03.708Z,2.58
2024-02-23T20:44:30.427Z,2.30
2024-02-23T20:46:59.762Z,2.20
2024-02-23T20:49:27.463Z,1.98
2024-02-23T20:51:57.301Z,3.00
2024-02-23T20:54:24.061Z,3.13
2024-02-23T20:56:50.595Z,2.28
2024-02-23T20:59:17.262Z,2.03
2024-02-23T21:01:43.757Z,2.35
2024-02-23T21:04:10.387Z,3.03
2024-02-23T21:06:37.772Z,2.00
2024-02-23T21:09:04.732Z,1.40
2024-02-23T21:11:31.354Z,2.15
2024-02-23T21:13:58.948Z,1.60
2024-02-23T21:16:25.463Z,2.22
2024-02-23T21:18:52.003Z,2.78
2024-02-23T21:21:21.429Z,1.60
2024-02-23T21:23:49.605Z,1.67
2024-02-23T21:26:16.614Z,3.53
2024-02-23T21:28:48.471Z,2.00
2024-02-23T21:31:15.119Z,1.50
2024-02-23T21:33:41.974Z,2.67
2024-02-23T21:36:08.562Z,2.25
2024-02-23T21:38:35.882Z,2.42
2024-02-23T21:41:02.667Z,2.58
2024-02-23T21:43:29.238Z,1.90
2024-02-23T21:45:55.826Z,2.53
2024-02-23T21:48:22.318Z,1.52
2024-02-23T21:50:48.918Z,1.88
2024-02-23T21:53:15.497Z,2.17
2024-02-23T21:55:41.988Z,1.75
2024-02-23T21:58:08.563Z,1.10
2024-02-23T22:00:35.115Z,1.05
2024-02-23T22:03:04.062Z,2.30
2024-02-23T22:05:31.043Z,1.52
2024-02-23T22:07:58.183Z,1.05
2024-02-23T22:10:24.710Z,2.28
2024-02-23T22:12:51.197Z,1.88
2024-02-23T22:15:17.858Z,2.03
2024-02-23T22:17:44.533Z,2.75
2024-02-23T22:20:11.270Z,2.05
2024-02-23T22:22:37.875Z,1.83
2024-02-23T22:25:04.997Z,3.08
2024-02-23T22:27:31.622Z,3.08
2024-02-23T22:30:00.930Z,1.92
2024-02-23T22:32:29.181Z,1.75
2024-02-23T22:34:56.172Z,1.40
2024-02-23T22:37:22.681Z,1.27
2024-02-23T22:39:49.258Z,1.27
2024-02-23T22:42:15.819Z,1.88
2024-02-23T22:44:42.476Z,1.80
2024-02-23T22:47:09.010Z,3.05
2024-02-23T22:49:38.630Z,2.10
2024-02-23T22:52:05.750Z,2.10
2024-02-23T22:54:32.268Z,1.73
2024-02-23T22:56:58.904Z,2.70
2024-02-23T22:59:25.388Z,1.55
2024-02-23T23:01:52.013Z,2.22
2024-02-23T23:04:18.712Z,2.35
2024-02-23T23:06:45.718Z,1.75
2024-02-23T23:09:13.327Z,2.10
2024-02-23T23:11:40.853Z,1.10
2024-02-23T23:14:08.307Z,1.20
2024-02-23T23:16:35.061Z,1.77
2024-02-23T23:19:01.970Z,1.23
2024-02-23T23:21:28.723Z,1.30
2024-02-23T23:23:55.198Z,1.58
2024-02-23T23:26:21.917Z,1.50
2024-02-23T23:28:49.996Z,1.60
2024-02-23T23:31:17.419Z,1.77
2024-02-23T23:33:45.064Z,1.58
2024-02-23T23:36:14.138Z,1.90
2024-02-23T23:38:44.171Z,1.50
2024-02-23T23:41:10.897Z,2.40
2024-02-23T23:43:37.617Z,1.58
2024-02-23T23:46:04.938Z,1.60
2024-02-23T23:48:32.841Z,1.27
2024-02-23T23:50:59.768Z,1.75
2024-02-23T23:53:27.733Z,1.73
2024-02-23T23:55:54.414Z,2.40
2024-02-23T23:58:21.539Z,1.77
